createdAt,value
2022-12-18T00:01:21.809Z,103065.28
2022-12-18T00:03:48.572Z,103057.16
2022-12-18T00:06:15.580Z,103067.16
2022-12-18T00:08:42.417Z,103063.56
2022-12-18T00:11:09.791Z,103066.41
2022-12-18T00:13:36.601Z,103070.06
2022-12-18T00:16:04.486Z,103076.47
2022-12-18T00:18:31.155Z,103078.34
2022-12-18T00:21:01.913Z,103086.59
2022-12-18T00:23:29.004Z,103080.19
2022-12-18T00:25:55.585Z,103082.91
2022-12-18T00:28:21.972Z,103082.91
2022-12-18T00:30:52.323Z,103081.91
2022-12-18T00:33:18.997Z,103084.63
2022-12-18T00:35:45.394Z,103086.47
2022-12-18T00:38:11.779Z,103083.88
2022-12-18T00:40:38.124Z,103078.53
2022-12-18T00:43:04.484Z,103078.53
2022-12-18T00:45:31.735Z,103082.16
2022-12-18T00:47:58.392Z,103087.69
2022-12-18T00:50:25.731Z,103084.22
2022-12-18T00:52:52.483Z,103082.72
2022-12-18T00:55:19.029Z,103094.72
2022-12-18T00:57:45.440Z,103100.38
2022-12-18T01:00:13.850Z,103095.06
2022-12-18T01:02:40.809Z,103097.00
2022-12-18T01:05:07.802Z,103097.97
2022-12-18T01:07:34.169Z,103099.91
2022-12-18T01:10:00.584Z,103107.97
2022-12-18T01:12:27.083Z,103100.69
2022-12-18T01:14:53.463Z,103098.84
2022-12-18T01:17:19.922Z,103115.13
2022-12-18T01:19:46.271Z,103103.41
2022-12-18T01:22:12.632Z,103104.41
2022-12-18T01:24:39.164Z,103106.13
2022-12-18T01:27:05.632Z,103097.13
2022-12-18T01:29:32.040Z,103102.53
2022-12-18T01:31:58.651Z,103101.69
2022-12-18T01:34:25.435Z,103106.97
2022-12-18T01:36:54.814Z,103107.84
2022-12-18T01:39:21.568Z,103116.84
2022-12-18T01:42:08.610Z,103115.97
2022-12-18T01:44:53.551Z,103113.28
2022-12-18T01:47:38.807Z,103114.34
2022-12-18T01:50:11.299Z,103119.16
2022-12-18T01:52:38.379Z,103119.16
2022-12-18T01:55:05.819Z,103121.00
2022-12-18T01:57:32.489Z,103123.72
2022-12-18T02:00:02.525Z,103121.84
2022-12-18T02:02:30.057Z,103125.44
2022-12-18T02:04:56.711Z,103117.31
2022-12-18T02:07:29.157Z,103119.03
2022-12-18T02:09:58.655Z,103118.91
2022-12-18T02:12:28.665Z,103125.19
2022-12-18T02:14:58.280Z,103120.75
2022-12-18T02:17:28.464Z,103131.50
2022-12-18T02:20:17.437Z,103130.63
2022-12-18T02:22:43.776Z,103134.31
2022-12-18T02:25:10.150Z,103129.00
2022-12-18T02:27:37.941Z,103129.75
2022-12-18T02:30:08.521Z,103123.38
2022-12-18T02:32:39.162Z,103128.03
2022-12-18T02:35:06.780Z,103140.50
2022-12-18T02:37:35.404Z,103138.75
2022-12-18T02:40:03.407Z,103142.34
2022-12-18T02:42:30.004Z,103132.38
2022-12-18T02:44:56.680Z,103135.94
2022-12-18T02:47:25.155Z,103143.22
2022-12-18T02:50:03.760Z,103139.66
2022-12-18T02:52:45.557Z,103144.19
2022-12-18T02:55:11.944Z,103146.16
2022-12-18T02:57:58.581Z,103152.31
2022-12-18T03:01:00.645Z,103146.25
2022-12-18T03:03:37.386Z,103153.63
2022-12-18T03:06:14.674Z,103140.28
2022-12-18T03:08:43.736Z,103147.53
2022-12-18T03:11:11.099Z,103159.50
2022-12-18T03:13:40.679Z,103152.22
2022-12-18T03:16:11.036Z,103151.25
2022-12-18T03:18:49.000Z,103162.22
2022-12-18T03:21:18.684Z,103159.59
2022-12-18T03:23:48.468Z,103163.28
2022-12-18T03:26:16.893Z,103166.00
2022-12-18T03:28:46.447Z,103163.16
2022-12-18T03:31:14.962Z,103162.41
2022-12-18T03:33:47.280Z,103161.53
2022-12-18T03:36:13.686Z,103168.81
2022-12-18T03:38:40.114Z,103168.03
2022-12-18T03:41:06.545Z,103163.72
2022-12-18T03:43:41.246Z,103168.81
2022-12-18T03:46:12.694Z,103165.13
2022-12-18T03:48:42.367Z,103160.44
2022-12-18T03:51:29.048Z,103159.50
2022-12-18T03:54:00.575Z,103163.94
2022-12-18T03:56:29.558Z,103171.09
2022-12-18T03:58:57.226Z,103176.41
2022-12-18T04:01:27.089Z,103171.84
2022-12-18T04:03:53.909Z,103177.28
2022-12-18T04:06:20.731Z,103174.56
2022-12-18T04:08:47.620Z,103171.84
2022-12-18T04:11:14.069Z,103171.00
2022-12-18T04:13:40.864Z,103164.69
2022-12-18T04:16:07.780Z,103165.66
2022-12-18T04:18:34.220Z,103172.06
2022-12-18T04:21:00.607Z,103164.13
2022-12-18T04:23:27.163Z,103174.13
2022-12-18T04:25:53.537Z,103176.84
2022-12-18T04:28:20.045Z,103183.25
2022-12-18T04:30:50.087Z,103187.03
2022-12-18T04:33:19.801Z,103180.06
2022-12-18T04:35:46.220Z,103183.66
2022-12-18T04:38:12.770Z,103180.06
2022-12-18T04:40:39.436Z,103183.88
2022-12-18T04:43:07.707Z,103184.75
2022-12-18T04:45:34.133Z,103176.69
2022-12-18T04:48:01.139Z,103171.53
2022-12-18T04:50:28.106Z,103175.19
2022-12-18T04:52:54.528Z,103178.88
2022-12-18T04:55:20.937Z,103177.13
2022-12-18T04:57:47.540Z,103187.88
2022-12-18T05:00:14.204Z,103202.41
2022-12-18T05:02:40.736Z,103196.13
2022-12-18T05:05:07.425Z,103201.75
2022-12-18T05:07:33.832Z,103202.59
2022-12-18T05:10:00.210Z,103208.88
2022-12-18T05:12:26.632Z,103199.88
2022-12-18T05:14:53.031Z,103207.94
2022-12-18T05:17:19.501Z,103209.56
2022-12-18T05:19:45.884Z,103209.56
2022-12-18T05:22:12.641Z,103219.53
2022-12-18T05:24:39.224Z,103225.72
2022-12-18T05:27:05.589Z,103233.75
2022-12-18T05:29:32.051Z,103235.47
2022-12-18T05:31:58.460Z,103234.59
2022-12-18T05:34:24.917Z,103227.56
2022-12-18T05:36:51.448Z,103229.38
2022-12-18T05:39:18.361Z,103226.78
2022-12-18T05:41:44.767Z,103239.47
2022-12-18T05:44:11.169Z,103239.47
2022-12-18T05:46:37.657Z,103237.53
2022-12-18T05:49:04.264Z,103251.06
2022-12-18T05:51:30.696Z,103251.06
2022-12-18T05:53:57.037Z,103248.38
2022-12-18T05:56:23.783Z,103245.56
2022-12-18T05:58:52.597Z,103248.28
2022-12-18T06:01:20.846Z,103251.84
2022-12-18T06:03:47.869Z,103259.00
2022-12-18T06:06:15.251Z,103258.91
2022-12-18T06:08:46.177Z,103259.66
2022-12-18T06:11:13.416Z,103255.97
2022-12-18T06:13:40.343Z,103254.13
2022-12-18T06:16:07.280Z,103261.88
2022-12-18T06:18:33.769Z,103261.44
2022-12-18T06:21:00.817Z,103263.00
2022-12-18T06:23:27.316Z,103264.44
2022-12-18T06:25:53.682Z,103255.78
2022-12-18T06:28:20.114Z,103263.09
2022-12-18T06:30:49.134Z,103264.94
2022-12-18T06:33:16.165Z,103285.28
2022-12-18T06:35:42.728Z,103279.59
2022-12-18T06:38:09.157Z,103278.00
2022-12-18T06:40:37.540Z,103283.47
2022-12-18T06:43:04.052Z,103301.72
2022-12-18T06:45:30.555Z,103313.91
2022-12-18T06:47:57.115Z,103313.56
2022-12-18T06:50:23.953Z,103317.97
2022-12-18T06:52:50.392Z,103319.75
2022-12-18T06:55:16.999Z,103320.81
2022-12-18T06:57:43.512Z,103311.94
2022-12-18T07:00:10.396Z,103309.44
2022-12-18T07:02:37.019Z,103312.44
2022-12-18T07:05:08.955Z,103311.84
2022-12-18T07:07:36.795Z,103313.91
2022-12-18T07:10:03.389Z,103316.88
2022-12-18T07:12:29.756Z,103311.63
2022-12-18T07:14:56.152Z,103316.25
2022-12-18T07:17:22.617Z,103310.22
2022-12-18T07:19:49.012Z,103323.91
2022-12-18T07:22:15.509Z,103326.03
2022-12-18T07:24:41.929Z,103322.03
2022-12-18T07:27:08.362Z,103317.06
2022-12-18T07:29:35.121Z,103327.59
2022-12-18T07:32:01.682Z,103330.75
2022-12-18T07:34:28.192Z,103336.72
2022-12-18T07:36:54.585Z,103339.16
2022-12-18T07:39:21.036Z,103332.47
2022-12-18T07:42:07.384Z,103335.72
2022-12-18T07:44:33.763Z,103340.94
2022-12-18T07:47:00.191Z,103342.34
2022-12-18T07:49:26.552Z,103346.59
2022-12-18T07:51:54.779Z,103346.38
2022-12-18T07:54:21.189Z,103352.34
2022-12-18T07:56:47.571Z,103349.44
2022-12-18T07:59:13.983Z,103356.41
2022-12-18T08:01:40.544Z,103358.00
2022-12-18T08:04:07.048Z,103345.09
2022-12-18T08:06:33.406Z,103339.47
2022-12-18T08:08:59.795Z,103336.53
2022-12-18T08:11:27.664Z,103338.28
2022-12-18T08:13:54.485Z,103346.19
2022-12-18T08:16:21.684Z,103343.38
2022-12-18T08:18:48.732Z,103341.31
2022-12-18T08:21:17.809Z,103340.25
2022-12-18T08:23:44.405Z,103335.69
2022-12-18T08:26:12.323Z,103346.41
2022-12-18T08:28:39.126Z,103346.19
2022-12-18T08:31:05.711Z,103342.50
2022-12-18T08:33:33.054Z,103336.94
2022-12-18T08:36:00.143Z,103357.59
2022-12-18T08:38:26.512Z,103360.19
2022-12-18T08:41:00.120Z,103360.09
2022-12-18T08:43:44.932Z,103361.84
2022-12-18T08:46:11.623Z,103355.34
2022-12-18T08:48:38.062Z,103355.22
2022-12-18T08:51:04.457Z,103362.38
2022-12-18T08:53:35.443Z,103367.59
2022-12-18T08:56:02.530Z,103365.75
2022-12-18T08:58:28.945Z,103370.09
2022-12-18T09:00:55.408Z,103376.41
2022-12-18T09:03:23.562Z,103383.56
2022-12-18T09:05:50.021Z,103386.16
2022-12-18T09:08:16.399Z,103384.34
2022-12-18T09:10:44.379Z,103380.50
2022-12-18T09:13:11.573Z,103377.78
2022-12-18T09:15:46.201Z,103380.50
2022-12-18T09:18:13.258Z,103379.44
2022-12-18T09:20:39.941Z,103380.28
2022-12-18T09:23:06.684Z,103385.72
2022-12-18T09:25:34.263Z,103395.59
2022-12-18T09:28:01.205Z,103409.09
2022-12-18T09:30:28.082Z,103405.50
2022-12-18T09:32:54.677Z,103395.44
2022-12-18T09:35:21.037Z,103383.69
2022-12-18T09:37:47.495Z,103385.44
2022-12-18T09:40:24.671Z,103386.28
2022-12-18T09:43:00.376Z,103392.59
2022-12-18T09:45:27.120Z,103392.59
2022-12-18T09:47:55.977Z,103394.31
2022-12-18T09:50:25.379Z,103381.63
2022-12-18T09:52:54.535Z,103380.66
2022-12-18T09:55:36.809Z,103368.91
2022-12-18T09:58:12.864Z,103367.06
2022-12-18T10:00:39.423Z,103376.94
2022-12-18T10:03:13.512Z,103371.50
2022-12-18T10:05:55.685Z,103369.66
2022-12-18T10:08:41.103Z,103363.25
2022-12-18T10:11:19.813Z,103365.00
2022-12-18T10:14:08.097Z,103359.66
2022-12-18T10:16:37.213Z,103358.56
2022-12-18T10:19:19.286Z,103356.72
2022-12-18T10:21:53.605Z,103353.03
2022-12-18T10:24:20.072Z,103347.59
2022-12-18T10:26:47.704Z,103342.06
2022-12-18T10:29:15.176Z,103338.34
2022-12-18T10:31:41.747Z,103330.19
2022-12-18T10:34:14.178Z,103328.22
2022-12-18T10:36:40.708Z,103321.84
2022-12-18T10:39:21.126Z,103310.97
2022-12-18T10:41:47.585Z,103316.28
2022-12-18T10:44:18.765Z,103312.69
2022-12-18T10:46:46.064Z,103304.53
2022-12-18T10:49:20.245Z,103304.41
2022-12-18T10:51:46.645Z,103306.28
2022-12-18T10:54:18.475Z,103305.28
2022-12-18T10:56:45.457Z,103299.84
2022-12-18T10:59:16.891Z,103301.69
2022-12-18T11:01:57.005Z,103309.75
2022-12-18T11:04:28.233Z,103300.75
2022-12-18T11:07:00.698Z,103295.19
2022-12-18T11:09:28.317Z,103288.88
2022-12-18T11:11:56.313Z,103287.03
2022-12-18T11:14:24.177Z,103285.31
2022-12-18T11:19:40.818Z,103288.88
2022-12-18T11:22:22.428Z,103291.59
2022-12-18T11:27:55.738Z,103282.59
2022-12-18T11:30:24.094Z,103279.88
2022-12-18T11:33:13.729Z,103287.03
2022-12-18T11:35:40.167Z,103285.19
2022-12-18T11:38:12.749Z,103284.31
2022-12-18T11:40:41.697Z,103282.47
2022-12-18T11:43:12.029Z,103285.06
2022-12-18T11:45:44.061Z,103294.09
2022-12-18T11:48:23.775Z,103298.63
2022-12-18T11:50:57.514Z,103301.34
2022-12-18T11:53:25.108Z,103302.25
2022-12-18T11:55:51.562Z,103312.13
2022-12-18T11:58:37.379Z,103309.41
2022-12-18T12:01:18.320Z,103304.84
2022-12-18T12:03:45.328Z,103295.81
2022-12-18T12:06:11.918Z,103311.16
2022-12-18T12:08:57.299Z,103308.44
2022-12-18T12:11:32.253Z,103321.88
2022-12-18T12:14:01.623Z,103321.88
2022-12-18T12:16:46.398Z,103311.03
2022-12-18T12:19:21.755Z,103307.34
2022-12-18T12:21:52.783Z,103309.06
2022-12-18T12:24:30.552Z,103309.06
2022-12-18T12:27:06.121Z,103313.66
2022-12-18T12:29:41.167Z,103322.66
2022-12-18T12:32:18.802Z,103327.09
2022-12-18T12:34:47.914Z,103329.81
2022-12-18T12:37:48.675Z,103328.84
2022-12-18T12:40:49.288Z,103333.41
2022-12-18T12:43:16.074Z,103339.84
2022-12-18T12:46:01.492Z,103348.84
2022-12-18T12:48:38.024Z,103351.44
2022-12-18T12:51:09.300Z,103350.56
2022-12-18T12:53:38.419Z,103336.03
2022-12-18T12:56:07.804Z,103333.31
2022-12-18T12:58:46.911Z,103323.19
2022-12-18T13:01:49.152Z,103318.72
2022-12-18T13:04:24.696Z,103307.88
2022-12-18T13:07:00.304Z,103310.59
2022-12-18T13:09:30.848Z,103300.56
2022-12-18T13:12:21.197Z,103297.84
2022-12-18T13:14:48.090Z,103300.56
2022-12-18T13:17:26.151Z,103301.44
2022-12-18T13:19:53.686Z,103292.28
2022-12-18T13:22:24.389Z,103286.84
2022-12-18T13:24:51.286Z,103285.91
2022-12-18T13:27:37.458Z,103287.72
2022-12-18T13:30:23.931Z,103288.63
2022-12-18T13:33:10.365Z,103288.63
2022-12-18T13:35:40.666Z,103293.06
2022-12-18T13:38:19.730Z,103296.66
2022-12-18T13:40:48.015Z,103298.38
2022-12-18T13:43:21.148Z,103291.22
2022-12-18T13:45:50.680Z,103295.66
2022-12-18T13:48:24.684Z,103310.09
2022-12-18T13:50:54.100Z,103302.94
2022-12-18T13:53:49.960Z,103293.81
2022-12-18T13:56:17.714Z,103296.44
2022-12-18T13:58:44.470Z,103296.44
2022-12-18T14:01:24.737Z,103288.28
2022-12-18T14:03:51.347Z,103277.50
2022-12-18T14:06:17.946Z,103282.84
2022-12-18T14:08:45.300Z,103278.34
2022-12-18T14:11:20.164Z,103268.38
2022-12-18T14:13:48.221Z,103260.22
2022-12-18T14:16:16.405Z,103252.28
2022-12-18T14:19:15.344Z,103253.88
2022-12-18T14:21:46.277Z,103253.03
2022-12-18T14:24:20.490Z,103245.72
2022-12-18T14:26:50.803Z,103247.59
2022-12-18T14:29:23.455Z,103246.72
2022-12-18T14:32:17.837Z,103245.00
2022-12-18T14:34:48.888Z,103254.03
2022-12-18T14:37:16.775Z,103247.59
2022-12-18T14:39:53.591Z,103239.56
2022-12-18T14:42:20.013Z,103241.28
2022-12-18T14:47:32.803Z,103226.72
2022-12-18T14:49:59.277Z,103212.25
2022-12-18T14:52:30.049Z,103215.84
2022-12-18T14:54:56.486Z,103207.69
2022-12-18T14:57:22.884Z,103208.56
2022-12-18T14:59:49.304Z,103204.88
2022-12-18T15:02:26.399Z,103207.59
2022-12-18T15:05:12.629Z,103217.59
2022-12-18T15:07:50.608Z,103222.16
2022-12-18T15:10:19.199Z,103216.59
2022-12-18T15:12:47.320Z,103219.31
2022-12-18T15:15:32.756Z,103215.75
2022-12-18T15:18:03.873Z,103227.47
2022-12-18T15:20:34.860Z,103235.63
2022-12-18T15:23:01.310Z,103244.66
2022-12-18T15:25:32.820Z,103247.38
2022-12-18T15:27:59.238Z,103250.09
2022-12-18T15:30:26.724Z,103255.53
2022-12-18T15:32:53.778Z,103250.09
2022-12-18T15:35:24.772Z,103252.81
2022-12-18T15:37:51.885Z,103250.94
2022-12-18T15:40:23.070Z,103255.53
2022-12-18T15:43:13.219Z,103250.09
2022-12-18T15:45:39.616Z,103249.09
2022-12-18T15:48:32.219Z,103233.78
2022-12-18T15:50:59.472Z,103240.19
2022-12-18T15:53:28.881Z,103237.34
2022-12-18T15:56:13.859Z,103242.78
2022-12-18T15:58:40.790Z,103237.34
2022-12-18T16:01:08.545Z,103237.34
2022-12-18T16:03:35.018Z,103235.50
2022-12-18T16:06:03.033Z,103240.06
2022-12-18T16:08:31.016Z,103235.50
2022-12-18T16:10:58.669Z,103231.91
2022-12-18T16:13:25.202Z,103224.75
2022-12-18T16:15:51.748Z,103225.50
2022-12-18T16:18:18.190Z,103223.75
2022-12-18T16:20:44.684Z,103222.78
2022-12-18T16:23:11.102Z,103211.03
2022-12-18T16:25:37.512Z,103209.19
2022-12-18T16:28:03.913Z,103213.75
2022-12-18T16:30:38.385Z,103214.63
2022-12-18T16:33:05.364Z,103221.81
2022-12-18T16:35:31.752Z,103220.06
2022-12-18T16:37:58.184Z,103209.94
2022-12-18T16:40:24.667Z,103216.38
2022-12-18T16:42:51.108Z,103215.38
2022-12-18T16:45:18.701Z,103211.81
2022-12-18T16:47:45.449Z,103201.78
2022-12-18T16:50:12.172Z,103199.06
2022-12-18T16:52:38.939Z,103200.94
2022-12-18T16:55:05.634Z,103202.66
2022-12-18T16:57:32.091Z,103208.09
2022-12-18T17:00:04.396Z,103215.25
2022-12-18T17:02:31.472Z,103215.38
2022-12-18T17:04:58.568Z,103215.25
2022-12-18T17:07:25.204Z,103215.25
2022-12-18T17:09:51.862Z,103224.28
2022-12-18T17:12:18.278Z,103221.69
2022-12-18T17:14:45.114Z,103216.25
2022-12-18T17:17:27.182Z,103216.13
2022-12-18T17:19:53.732Z,103216.13
2022-12-18T17:22:20.663Z,103207.09
2022-12-18T17:24:47.403Z,103210.69
2022-12-18T17:27:14.075Z,103211.66
2022-12-18T17:29:46.793Z,103205.25
2022-12-18T17:32:14.745Z,103215.25
2022-12-18T17:34:41.209Z,103216.13
2022-12-18T17:37:07.675Z,103217.88
2022-12-18T17:39:34.323Z,103227.00
2022-12-18T17:42:00.846Z,103235.16
2022-12-18T17:44:27.216Z,103227.84
2022-12-18T17:46:53.675Z,103230.47
2022-12-18T17:49:20.217Z,103221.47
2022-12-18T17:51:46.622Z,103230.56
2022-12-18T17:54:13.141Z,103225.03
2022-12-18T17:56:39.667Z,103213.31
2022-12-18T17:59:06.943Z,103215.88
2022-12-18T18:01:33.468Z,103216.03
2022-12-18T18:04:00.753Z,103215.03
2022-12-18T18:06:27.497Z,103209.59
2022-12-18T18:08:54.265Z,103213.16
2022-12-18T18:11:40.073Z,103209.59
2022-12-18T18:14:08.373Z,103200.44
2022-12-18T18:16:41.885Z,103198.59
2022-12-18T18:19:09.902Z,103188.69
2022-12-18T18:21:38.252Z,103193.28
2022-12-18T18:24:05.387Z,103184.25
2022-12-18T18:26:32.645Z,103177.84
2022-12-18T18:29:00.249Z,103170.53
2022-12-18T18:31:30.016Z,103165.09
2022-12-18T18:33:57.121Z,103162.38
2022-12-18T18:36:23.779Z,103159.78
2022-12-18T18:38:50.913Z,103164.25
2022-12-18T18:41:18.174Z,103159.66
2022-12-18T18:43:44.844Z,103150.78
2022-12-18T18:46:12.551Z,103132.47
2022-12-18T18:48:40.207Z,103136.19
2022-12-18T18:51:14.601Z,103137.06
2022-12-18T18:53:47.661Z,103136.19
2022-12-18T18:59:02.075Z,103120.00
2022-12-18T19:01:28.646Z,103119.88
2022-12-18T19:03:55.120Z,103117.16
2022-12-18T19:06:24.139Z,103118.03
2022-12-18T19:08:51.699Z,103111.72
2022-12-18T19:11:37.378Z,103105.41
2022-12-18T19:14:05.060Z,103107.16
2022-12-18T19:16:32.232Z,103102.69
2022-12-18T19:19:01.868Z,103107.16
2022-12-18T19:21:28.915Z,103106.28
2022-12-18T19:23:58.396Z,103110.72
2022-12-18T19:26:28.026Z,103095.41
2022-12-18T19:28:55.054Z,103099.84
2022-12-18T19:31:29.203Z,103098.00
2022-12-18T19:33:59.511Z,103099.84
2022-12-18T19:36:27.524Z,103105.28
2022-12-18T19:38:55.294Z,103101.72
2022-12-18T19:41:22.323Z,103096.28
2022-12-18T19:43:49.131Z,103091.69
2022-12-18T19:46:17.345Z,103070.94
2022-12-18T19:48:45.074Z,103064.50
2022-12-18T19:51:14.184Z,103073.66
2022-12-18T19:53:40.690Z,103069.09
2022-12-18T19:56:11.396Z,103063.66
2022-12-18T19:58:38.171Z,103060.06
2022-12-18T20:01:05.606Z,103066.38
2022-12-18T20:03:35.379Z,103065.50
2022-12-18T20:06:09.037Z,103062.66
2022-12-18T20:08:35.568Z,103056.34
2022-12-18T20:11:01.969Z,103047.34
2022-12-18T20:13:28.427Z,103039.19
2022-12-18T20:15:54.768Z,103038.31
2022-12-18T20:18:21.179Z,103036.47
2022-12-18T20:20:48.195Z,103031.88
2022-12-18T20:23:16.604Z,103036.47
2022-12-18T20:25:43.040Z,103044.63
2022-12-18T20:28:09.423Z,103033.75
2022-12-18T20:30:35.942Z,103034.75
2022-12-18T20:33:02.437Z,103035.59
2022-12-18T20:35:31.108Z,103044.63
2022-12-18T20:37:57.748Z,103050.91
2022-12-18T20:40:25.782Z,103046.34
2022-12-18T20:42:52.300Z,103037.31
2022-12-18T20:45:19.579Z,103050.81
2022-12-18T20:47:46.038Z,103040.91
2022-12-18T20:50:12.407Z,103042.66
2022-12-18T20:52:38.800Z,103036.34
2022-12-18T20:55:06.147Z,103024.59
2022-12-18T20:57:33.164Z,103029.06
2022-12-18T21:00:00.806Z,103025.34
2022-12-18T21:02:27.320Z,103024.50
2022-12-18T21:04:54.252Z,103020.03
2022-12-18T21:07:20.789Z,103019.06
2022-12-18T21:09:47.279Z,103018.19
2022-12-18T21:12:34.917Z,103025.34
2022-12-18T21:15:08.624Z,103019.06
2022-12-18T21:17:41.706Z,103019.91
2022-12-18T21:20:10.962Z,103012.63
2022-12-18T21:22:42.259Z,103016.34
2022-12-18T21:25:09.791Z,103019.91
2022-12-18T21:27:36.173Z,103009.91
2022-12-18T21:30:02.825Z,103000.88
2022-12-18T21:32:29.910Z,102990.88
2022-12-18T21:35:00.073Z,102991.88
2022-12-18T21:37:26.668Z,102993.59
2022-12-18T21:39:53.079Z,102993.59
2022-12-18T21:42:38.332Z,102998.16
2022-12-18T21:45:04.960Z,102996.19
2022-12-18T21:47:31.473Z,102999.03
2022-12-18T21:49:57.902Z,102999.88
2022-12-18T21:52:31.427Z,102994.44
2022-12-18T21:55:03.090Z,102988.16
2022-12-18T21:57:34.767Z,102999.88
2022-12-18T22:00:02.050Z,102996.31
2022-12-18T22:02:28.519Z,102979.13
2022-12-18T22:04:55.086Z,102982.72
2022-12-18T22:07:21.593Z,102980.00
2022-12-18T22:09:49.536Z,102977.28
2022-12-18T22:12:35.341Z,102974.56
2022-12-18T22:15:03.272Z,102969.13
2022-12-18T22:17:29.697Z,102956.38
2022-12-18T22:19:57.064Z,102955.53
2022-12-18T22:22:23.503Z,102952.81
2022-12-18T22:24:49.886Z,102962.81
2022-12-18T22:27:16.343Z,102960.09
2022-12-18T22:30:01.477Z,102956.38
2022-12-18T22:32:30.919Z,102953.81
2022-12-18T22:35:03.235Z,102951.94
2022-12-18T22:37:31.655Z,102943.78
2022-12-18T22:39:58.054Z,102942.78
2022-12-18T22:42:24.475Z,102943.66
2022-12-18T22:44:50.956Z,102942.78
2022-12-18T22:47:17.407Z,102933.78
2022-12-18T22:49:43.924Z,102929.19
2022-12-18T22:52:10.509Z,102926.47
2022-12-18T22:54:36.956Z,102927.34
2022-12-18T22:57:03.439Z,102912.03
2022-12-18T22:59:29.852Z,102904.75
2022-12-18T23:01:58.688Z,102891.13
2022-12-18T23:04:31.220Z,102897.44
2022-12-18T23:07:03.079Z,102899.28
2022-12-18T23:09:29.421Z,102885.72
2022-12-18T23:11:55.761Z,102874.84
2022-12-18T23:14:22.157Z,102866.81
2022-12-18T23:16:49.037Z,102862.25
2022-12-18T23:19:17.129Z,102872.13
2022-12-18T23:21:43.572Z,102865.81
2022-12-18T23:24:10.318Z,102852.22
2022-12-18T23:26:36.779Z,102841.34
2022-12-18T23:29:03.751Z,102851.38
2022-12-18T23:31:31.464Z,102852.34
2022-12-18T23:33:59.223Z,102852.22
2022-12-18T23:36:26.039Z,102855.94
2022-12-18T23:38:53.752Z,102846.78
2022-12-18T23:41:20.995Z,102846.78
2022-12-18T23:43:47.408Z,102845.69
2022-12-18T23:46:25.316Z,102850.38
2022-12-18T23:48:52.458Z,102853.09
2022-12-18T23:51:19.720Z,102835.06
2022-12-18T23:53:46.142Z,102842.22
2022-12-18T23:56:13.389Z,102827.75
2022-12-18T23:58:39.821Z,102818.75
